createdAt,value
2018-03-28T00:08:14.569Z,49.60
2018-03-28T00:18:23.256Z,50.00
2018-03-28T00:28:38.558Z,49.70
2018-03-28T00:38:47.662Z,49.60
2018-03-28T00:48:58.936Z,49.60
2018-03-28T00:59:11.189Z,49.20
2018-03-28T01:09:21.534Z,49.00
2018-03-28T01:19:33.955Z,48.90
2018-03-28T01:29:51.791Z,48.90
2018-03-28T01:40:07.334Z,49.50
2018-03-28T01:50:18.896Z,49.70
2018-03-28T02:00:28.988Z,49.60
2018-03-28T02:10:42.539Z,49.70
2018-03-28T02:21:00.872Z,49.70
2018-03-28T02:31:10.437Z,49.60
2018-03-28T02:41:20.193Z,49.60
2018-03-28T02:51:30.435Z,49.60
2018-03-28T03:01:48.854Z,49.20
2018-03-28T03:12:00.160Z,49.10
2018-03-28T03:22:13.997Z,49.00
2018-03-28T03:32:26.098Z,50.00
2018-03-28T03:42:38.889Z,50.10
2018-03-28T03:52:53.073Z,50.10
2018-03-28T04:03:07.814Z,50.00
2018-03-28T04:13:19.751Z,50.20
2018-03-28T04:23:34.527Z,50.20
2018-03-28T04:33:47.681Z,50.20
2018-03-28T04:43:57.567Z,50.10
2018-03-28T04:54:11.974Z,49.90
2018-03-28T05:04:31.656Z,49.90
2018-03-28T05:14:43.682Z,49.80
2018-03-28T05:24:56.536Z,49.80
2018-03-28T05:35:17.413Z,49.60
2018-03-28T05:45:26.814Z,49.70
2018-03-28T05:55:42.074Z,49.40
2018-03-28T06:05:56.869Z,49.90
2018-03-28T06:16:10.780Z,49.30
2018-03-28T06:26:21.591Z,49.20
2018-03-28T06:36:33.557Z,48.80
2018-03-28T06:46:50.176Z,48.60
2018-03-28T06:56:58.658Z,48.40
2018-03-28T07:07:14.877Z,48.80
2018-03-28T07:17:32.327Z,48.20
2018-03-28T07:27:44.345Z,48.30
2018-03-28T07:38:00.355Z,48.50
2018-03-28T07:48:14.700Z,48.40
2018-03-28T07:58:23.054Z,48.40
2018-03-28T08:08:34.285Z,48.70
2018-03-28T08:18:50.181Z,48.70
2018-03-28T08:29:02.780Z,48.70
2018-03-28T08:39:25.100Z,49.00
2018-03-28T08:49:42.998Z,49.00
2018-03-28T08:59:53.796Z,48.90
2018-03-28T09:10:04.886Z,48.70
2018-03-28T09:20:15.421Z,48.70
2018-03-28T09:30:31.399Z,48.90
2018-03-28T09:40:48.398Z,49.00
2018-03-28T09:50:56.903Z,49.00
2018-03-28T10:01:11.309Z,48.90
2018-03-28T10:11:21.733Z,49.70
2018-03-28T10:21:33.859Z,51.80
2018-03-28T10:31:46.738Z,51.80
2018-03-28T10:41:59.419Z,58.50
2018-03-28T10:52:16.811Z,58.50
2018-03-28T11:02:26.305Z,53.80
2018-03-28T11:12:34.729Z,53.80
2018-03-28T11:22:43.965Z,49.80
2018-03-28T11:32:52.665Z,45.70
2018-03-28T11:43:03.320Z,44.00
2018-03-28T11:53:13.816Z,44.70
2018-03-28T12:03:31.058Z,44.80
2018-03-28T12:13:51.119Z,44.70
2018-03-28T12:24:07.680Z,44.60
2018-03-28T12:34:18.398Z,45.10
2018-03-28T12:44:30.373Z,45.50
2018-03-28T12:54:43.554Z,45.80
2018-03-28T13:05:04.273Z,46.00
2018-03-28T13:15:16.310Z,45.90
2018-03-28T13:25:33.130Z,46.50
2018-03-28T13:35:46.718Z,46.10
2018-03-28T13:46:00.894Z,46.20
2018-03-28T13:56:14.584Z,46.40
2018-03-28T14:06:25.306Z,47.10
2018-03-28T14:16:41.166Z,47.30
2018-03-28T14:26:54.134Z,47.90
2018-03-28T14:37:10.105Z,48.60
2018-03-28T14:47:23.275Z,48.60
2018-03-28T14:57:38.367Z,48.70
2018-03-28T15:07:54.262Z,49.40
2018-03-28T15:18:06.315Z,49.30
2018-03-28T15:28:17.445Z,49.10
2018-03-28T15:38:33.397Z,49.90
2018-03-28T15:48:44.243Z,49.90
2018-03-28T15:59:05.020Z,49.90
2018-03-28T16:09:14.911Z,49.90
2018-03-28T16:19:27.014Z,49.70
2018-03-28T16:29:37.990Z,49.70
2018-03-28T16:39:51.163Z,49.80
2018-03-28T16:49:59.494Z,49.80
2018-03-28T17:00:11.742Z,49.70
2018-03-28T17:10:21.481Z,49.90
2018-03-28T17:20:32.709Z,50.30
2018-03-28T17:30:41.002Z,49.60
2018-03-28T17:40:50.356Z,49.70
2018-03-28T17:51:01.394Z,49.90
2018-03-28T18:01:20.551Z,49.90
2018-03-28T18:11:33.088Z,49.80
2018-03-28T18:21:43.893Z,49.90
2018-03-28T18:31:53.322Z,49.90
2018-03-28T18:42:03.657Z,49.80
2018-03-28T18:52:16.035Z,49.80
2018-03-28T19:02:25.153Z,49.70
2018-03-28T19:12:36.703Z,49.70
2018-03-28T19:22:49.078Z,49.80
2018-03-28T19:32:57.269Z,49.80
2018-03-28T19:43:12.536Z,50.00
2018-03-28T19:53:28.859Z,50.00
2018-03-28T20:03:37.790Z,50.00
2018-03-28T20:13:49.624Z,49.90
2018-03-28T20:23:57.710Z,50.00
2018-03-28T20:34:10.827Z,50.00
2018-03-28T20:44:29.525Z,50.10
2018-03-28T20:54:38.528Z,50.10
2018-03-28T21:04:54.660Z,50.30
2018-03-28T21:15:09.071Z,50.20
2018-03-28T21:25:19.438Z,50.40
2018-03-28T21:35:31.018Z,50.30
2018-03-28T21:45:48.870Z,50.40
2018-03-28T21:55:59.053Z,50.30
2018-03-28T22:06:08.782Z,50.30
2018-03-28T22:16:24.235Z,50.40
2018-03-28T22:26:36.546Z,50.40
2018-03-28T22:36:46.804Z,50.30
2018-03-28T22:47:03.871Z,49.90
2018-03-28T22:57:17.841Z,49.30
2018-03-28T23:07:32.596Z,49.30
2018-03-28T23:17:53.242Z,50.00
2018-03-28T23:38:52.203Z,49.70
2018-03-28T23:49:16.423Z,49.90
2018-03-28T23:59:32.169Z,49.90
